sensor_id;sensor_type;location;lat;lon;timestamp;P1;durP1;ratioP1;P2;durP2;ratioP2
20725;SDS011;10524;48.132;8.518;2024-02-21T00:00:46;23.75;;;11.65;;
20725;SDS011;10524;48.132;8.518;2024-02-21T00:03:12;24.38;;;12.15;;
20725;SDS011;10524;48.132;8.518;2024-02-21T00:05:38;22.65;;;12.20;;
20725;SDS011;10524;48.132;8.518;2024-02-21T00:08:03;27.27;;;12.30;;
20725;SDS011;10524;48.132;8.518;2024-02-21T00:10:29;32.25;;;14.27;;
20725;SDS011;10524;48.132;8.518;2024-02-21T00:12:57;27.92;;;14.38;;
20725;SDS011;10524;48.132;8.518;2024-02-21T00:15:25;26.58;;;14.85;;
20725;SDS011;10524;48.132;8.518;2024-02-21T00:17:50;29.88;;;14.48;;
20725;SDS011;10524;48.132;8.518;2024-02-21T00:20:16;28.27;;;14.10;;
20725;SDS011;10524;48.132;8.518;2024-02-21T00:22:42;25.92;;;11.98;;
20725;SDS011;10524;48.132;8.518;2024-02-21T00:25:09;23.98;;;12.15;;
20725;SDS011;10524;48.132;8.518;2024-02-21T00:27:35;26.15;;;13.23;;
20725;SDS011;10524;48.132;8.518;2024-02-21T00:30:01;30.40;;;12.63;;
20725;SDS011;10524;48.132;8.518;2024-02-21T00:32:27;23.10;;;10.55;;
20725;SDS011;10524;48.132;8.518;2024-02-21T00:34:53;22.60;;;10.15;;
20725;SDS011;10524;48.132;8.518;2024-02-21T00:37:18;25.20;;;10.23;;
20725;SDS011;10524;48.132;8.518;2024-02-21T00:39:44;22.02;;;9.18;;
20725;SDS011;10524;48.132;8.518;2024-02-21T00:42:10;19.63;;;8.48;;
20725;SDS011;10524;48.132;8.518;2024-02-21T00:44:35;18.48;;;9.15;;
20725;SDS011;10524;48.132;8.518;2024-02-21T00:47:01;14.55;;;7.95;;
20725;SDS011;10524;48.132;8.518;2024-02-21T00:49:27;16.50;;;8.18;;
20725;SDS011;10524;48.132;8.518;2024-02-21T00:51:53;19.60;;;9.25;;
20725;SDS011;10524;48.132;8.518;2024-02-21T00:54:18;18.98;;;10.05;;
20725;SDS011;10524;48.132;8.518;2024-02-21T00:56:44;26.00;;;9.57;;
20725;SDS011;10524;48.132;8.518;2024-02-21T00:59:10;17.77;;;8.57;;
20725;SDS011;10524;48.132;8.518;2024-02-21T01:01:35;15.32;;;8.30;;
20725;SDS011;10524;48.132;8.518;2024-02-21T01:04:01;21.80;;;8.40;;
20725;SDS011;10524;48.132;8.518;2024-02-21T01:06:27;17.83;;;8.70;;
20725;SDS011;10524;48.132;8.518;2024-02-21T01:08:52;21.38;;;8.85;;
20725;SDS011;10524;48.132;8.518;2024-02-21T01:11:18;17.10;;;8.63;;
20725;SDS011;10524;48.132;8.518;2024-02-21T01:13:44;18.52;;;8.20;;
20725;SDS011;10524;48.132;8.518;2024-02-21T01:16:10;15.10;;;7.85;;
20725;SDS011;10524;48.132;8.518;2024-02-21T01:18:38;16.05;;;8.27;;
20725;SDS011;10524;48.132;8.518;2024-02-21T01:21:05;17.80;;;8.27;;
20725;SDS011;10524;48.132;8.518;2024-02-21T01:23:35;21.50;;;8.05;;
20725;SDS011;10524;48.132;8.518;2024-02-21T01:26:02;19.63;;;8.13;;
20725;SDS011;10524;48.132;8.518;2024-02-21T01:28:28;15.60;;;7.70;;
20725;SDS011;10524;48.132;8.518;2024-02-21T01:30:55;18.63;;;7.90;;
20725;SDS011;10524;48.132;8.518;2024-02-21T01:33:22;19.65;;;7.95;;
20725;SDS011;10524;48.132;8.518;2024-02-21T01:35:47;19.52;;;7.88;;
20725;SDS011;10524;48.132;8.518;2024-02-21T01:38:14;18.20;;;8.80;;
20725;SDS011;10524;48.132;8.518;2024-02-21T01:40:40;15.63;;;7.60;;
20725;SDS011;10524;48.132;8.518;2024-02-21T01:43:15;16.30;;;7.45;;
20725;SDS011;10524;48.132;8.518;2024-02-21T01:45:43;16.23;;;7.97;;
20725;SDS011;10524;48.132;8.518;2024-02-21T01:48:11;18.17;;;7.70;;
20725;SDS011;10524;48.132;8.518;2024-02-21T01:50:38;14.88;;;7.97;;
20725;SDS011;10524;48.132;8.518;2024-02-21T01:53:04;17.75;;;8.50;;
20725;SDS011;10524;48.132;8.518;2024-02-21T01:55:31;14.77;;;7.57;;
20725;SDS011;10524;48.132;8.518;2024-02-21T01:57:57;18.23;;;7.88;;
20725;SDS011;10524;48.132;8.518;2024-02-21T02:00:23;16.92;;;7.75;;
20725;SDS011;10524;48.132;8.518;2024-02-21T02:02:49;17.67;;;7.65;;
20725;SDS011;10524;48.132;8.518;2024-02-21T02:05:15;15.23;;;7.75;;
20725;SDS011;10524;48.132;8.518;2024-02-21T02:07:43;16.52;;;7.85;;
20725;SDS011;10524;48.132;8.518;2024-02-21T02:10:09;17.88;;;7.38;;
20725;SDS011;10524;48.132;8.518;2024-02-21T02:12:35;16.48;;;7.95;;
20725;SDS011;10524;48.132;8.518;2024-02-21T02:15:02;18.80;;;7.40;;
20725;SDS011;10524;48.132;8.518;2024-02-21T02:17:31;20.52;;;7.45;;
20725;SDS011;10524;48.132;8.518;2024-02-21T02:19:57;19.35;;;6.85;;
20725;SDS011;10524;48.132;8.518;2024-02-21T02:22:25;22.23;;;6.88;;
20725;SDS011;10524;48.132;8.518;2024-02-21T02:24:54;19.25;;;6.70;;
20725;SDS011;10524;48.132;8.518;2024-02-21T02:27:20;15.77;;;7.50;;
20725;SDS011;10524;48.132;8.518;2024-02-21T02:29:48;15.35;;;6.68;;
20725;SDS011;10524;48.132;8.518;2024-02-21T02:32:14;19.02;;;6.85;;
20725;SDS011;10524;48.132;8.518;2024-02-21T02:34:40;16.17;;;6.53;;
20725;SDS011;10524;48.132;8.518;2024-02-21T02:37:05;17.08;;;6.57;;
20725;SDS011;10524;48.132;8.518;2024-02-21T02:39:31;15.50;;;6.55;;
20725;SDS011;10524;48.132;8.518;2024-02-21T02:41:57;17.35;;;6.70;;
20725;SDS011;10524;48.132;8.518;2024-02-21T02:44:23;18.77;;;6.60;;
20725;SDS011;10524;48.132;8.518;2024-02-21T02:46:49;16.88;;;5.65;;
20725;SDS011;10524;48.132;8.518;2024-02-21T02:49:15;15.40;;;6.07;;
20725;SDS011;10524;48.132;8.518;2024-02-21T02:51:41;13.90;;;6.07;;
20725;SDS011;10524;48.132;8.518;2024-02-21T02:54:08;17.92;;;6.00;;
20725;SDS011;10524;48.132;8.518;2024-02-21T02:56:33;12.88;;;6.63;;
20725;SDS011;10524;48.132;8.518;2024-02-21T02:58:59;16.38;;;6.40;;
20725;SDS011;10524;48.132;8.518;2024-02-21T03:01:25;17.05;;;5.88;;
20725;SDS011;10524;48.132;8.518;2024-02-21T03:03:51;20.15;;;6.32;;
20725;SDS011;10524;48.132;8.518;2024-02-21T03:06:17;20.83;;;6.32;;
20725;SDS011;10524;48.132;8.518;2024-02-21T03:08:42;18.98;;;5.90;;
20725;SDS011;10524;48.132;8.518;2024-02-21T03:11:08;14.18;;;6.10;;
20725;SDS011;10524;48.132;8.518;2024-02-21T03:13:36;10.68;;;5.57;;
20725;SDS011;10524;48.132;8.518;2024-02-21T03:16:01;12.30;;;5.43;;
20725;SDS011;10524;48.132;8.518;2024-02-21T03:18:27;12.40;;;5.38;;
20725;SDS011;10524;48.132;8.518;2024-02-21T03:20:53;16.13;;;5.65;;
20725;SDS011;10524;48.132;8.518;2024-02-21T03:23:19;12.93;;;5.20;;
20725;SDS011;10524;48.132;8.518;2024-02-21T03:25:44;13.63;;;4.53;;
20725;SDS011;10524;48.132;8.518;2024-02-21T03:28:10;12.20;;;4.75;;
20725;SDS011;10524;48.132;8.518;2024-02-21T03:30:36;11.52;;;4.72;;
20725;SDS011;10524;48.132;8.518;2024-02-21T03:33:02;15.93;;;4.85;;
20725;SDS011;10524;48.132;8.518;2024-02-21T03:35:28;13.13;;;4.63;;
20725;SDS011;10524;48.132;8.518;2024-02-21T03:37:54;10.15;;;4.53;;
20725;SDS011;10524;48.132;8.518;2024-02-21T03:40:19;13.52;;;4.93;;
20725;SDS011;10524;48.132;8.518;2024-02-21T03:42:45;10.13;;;4.80;;
20725;SDS011;10524;48.132;8.518;2024-02-21T03:45:11;11.98;;;5.05;;
20725;SDS011;10524;48.132;8.518;2024-02-21T03:47:37;13.43;;;5.10;;
20725;SDS011;10524;48.132;8.518;2024-02-21T03:50:03;18.80;;;5.75;;
20725;SDS011;10524;48.132;8.518;2024-02-21T03:52:30;11.82;;;5.65;;
20725;SDS011;10524;48.132;8.518;2024-02-21T03:54:56;12.20;;;5.55;;
20725;SDS011;10524;48.132;8.518;2024-02-21T03:57:21;18.00;;;5.45;;
20725;SDS011;10524;48.132;8.518;2024-02-21T03:59:50;16.83;;;5.63;;
20725;SDS011;10524;48.132;8.518;2024-02-21T04:02:16;17.33;;;5.40;;
20725;SDS011;10524;48.132;8.518;2024-02-21T04:04:43;17.85;;;5.72;;
20725;SDS011;10524;48.132;8.518;2024-02-21T04:07:12;15.70;;;5.60;;
20725;SDS011;10524;48.132;8.518;2024-02-21T04:09:38;12.13;;;5.50;;
20725;SDS011;10524;48.132;8.518;2024-02-21T04:12:05;14.70;;;5.53;;
20725;SDS011;10524;48.132;8.518;2024-02-21T04:14:36;13.98;;;5.80;;
20725;SDS011;10524;48.132;8.518;2024-02-21T04:17:02;17.48;;;5.70;;
20725;SDS011;10524;48.132;8.518;2024-02-21T04:19:28;12.52;;;5.75;;
20725;SDS011;10524;48.132;8.518;2024-02-21T04:21:56;11.40;;;5.72;;
20725;SDS011;10524;48.132;8.518;2024-02-21T04:24:21;12.52;;;5.63;;
20725;SDS011;10524;48.132;8.518;2024-02-21T04:26:47;12.98;;;5.90;;
20725;SDS011;10524;48.132;8.518;2024-02-21T04:29:13;16.00;;;6.47;;
20725;SDS011;10524;48.132;8.518;2024-02-21T04:31:38;12.18;;;6.15;;
20725;SDS011;10524;48.132;8.518;2024-02-21T04:34:05;11.95;;;5.68;;
20725;SDS011;10524;48.132;8.518;2024-02-21T04:36:31;15.80;;;5.47;;
20725;SDS011;10524;48.132;8.518;2024-02-21T04:38:58;15.15;;;6.45;;
20725;SDS011;10524;48.132;8.518;2024-02-21T04:41:24;16.92;;;6.60;;
20725;SDS011;10524;48.132;8.518;2024-02-21T04:43:49;19.05;;;6.47;;
20725;SDS011;10524;48.132;8.518;2024-02-21T04:46:15;17.30;;;6.75;;
20725;SDS011;10524;48.132;8.518;2024-02-21T04:48:41;15.65;;;5.80;;
20725;SDS011;10524;48.132;8.518;2024-02-21T04:51:06;19.48;;;8.27;;
20725;SDS011;10524;48.132;8.518;2024-02-21T04:53:32;16.17;;;6.85;;
20725;SDS011;10524;48.132;8.518;2024-02-21T04:55:58;20.55;;;6.72;;
20725;SDS011;10524;48.132;8.518;2024-02-21T04:58:24;16.73;;;6.13;;
20725;SDS011;10524;48.132;8.518;2024-02-21T05:00:50;19.98;;;6.78;;
20725;SDS011;10524;48.132;8.518;2024-02-21T05:03:16;16.00;;;6.72;;
20725;SDS011;10524;48.132;8.518;2024-02-21T05:05:58;18.15;;;6.60;;
20725;SDS011;10524;48.132;8.518;2024-02-21T05:08:24;16.33;;;6.47;;
20725;SDS011;10524;48.132;8.518;2024-02-21T05:10:50;19.35;;;5.60;;
20725;SDS011;10524;48.132;8.518;2024-02-21T05:13:16;18.77;;;5.28;;
20725;SDS011;10524;48.132;8.518;2024-02-21T05:15:41;15.40;;;5.63;;
20725;SDS011;10524;48.132;8.518;2024-02-21T05:18:07;17.73;;;5.88;;
20725;SDS011;10524;48.132;8.518;2024-02-21T05:20:33;15.38;;;5.35;;
20725;SDS011;10524;48.132;8.518;2024-02-21T05:22:59;20.38;;;6.55;;
20725;SDS011;10524;48.132;8.518;2024-02-21T05:25:24;15.65;;;6.35;;
20725;SDS011;10524;48.132;8.518;2024-02-21T05:27:51;19.75;;;7.30;;
20725;SDS011;10524;48.132;8.518;2024-02-21T05:30:18;20.45;;;7.00;;
20725;SDS011;10524;48.132;8.518;2024-02-21T05:32:45;19.38;;;6.97;;
20725;SDS011;10524;48.132;8.518;2024-02-21T05:35:11;22.10;;;7.22;;
20725;SDS011;10524;48.132;8.518;2024-02-21T05:37:37;23.50;;;7.68;;
20725;SDS011;10524;48.132;8.518;2024-02-21T05:40:03;21.23;;;7.70;;
20725;SDS011;10524;48.132;8.518;2024-02-21T05:42:30;17.90;;;7.10;;
20725;SDS011;10524;48.132;8.518;2024-02-21T05:44:55;19.50;;;7.95;;
20725;SDS011;10524;48.132;8.518;2024-02-21T05:47:21;24.35;;;8.30;;
20725;SDS011;10524;48.132;8.518;2024-02-21T05:49:47;19.80;;;8.57;;
20725;SDS011;10524;48.132;8.518;2024-02-21T05:52:13;24.67;;;9.10;;
20725;SDS011;10524;48.132;8.518;2024-02-21T05:54:39;22.73;;;9.60;;
20725;SDS011;10524;48.132;8.518;2024-02-21T05:57:05;21.58;;;9.25;;
20725;SDS011;10524;48.132;8.518;2024-02-21T05:59:32;25.83;;;9.27;;
20725;SDS011;10524;48.132;8.518;2024-02-21T06:01:58;21.48;;;8.48;;
20725;SDS011;10524;48.132;8.518;2024-02-21T06:04:23;20.73;;;9.77;;
20725;SDS011;10524;48.132;8.518;2024-02-21T06:06:49;23.55;;;9.57;;
20725;SDS011;10524;48.132;8.518;2024-02-21T06:09:15;24.35;;;9.20;;
20725;SDS011;10524;48.132;8.518;2024-02-21T06:11:40;23.65;;;9.25;;
20725;SDS011;10524;48.132;8.518;2024-02-21T06:14:06;23.48;;;9.18;;
20725;SDS011;10524;48.132;8.518;2024-02-21T06:16:32;18.88;;;8.50;;
20725;SDS011;10524;48.132;8.518;2024-02-21T06:18:58;19.75;;;8.73;;
20725;SDS011;10524;48.132;8.518;2024-02-21T06:21:23;23.50;;;8.45;;
20725;SDS011;10524;48.132;8.518;2024-02-21T06:23:54;17.00;;;6.03;;
20725;SDS011;10524;48.132;8.518;2024-02-21T06:26:20;11.43;;;5.68;;
20725;SDS011;10524;48.132;8.518;2024-02-21T06:28:46;17.38;;;6.38;;
20725;SDS011;10524;48.132;8.518;2024-02-21T06:31:12;14.32;;;6.57;;
20725;SDS011;10524;48.132;8.518;2024-02-21T06:33:37;11.30;;;5.10;;
20725;SDS011;10524;48.132;8.518;2024-02-21T06:36:03;16.85;;;6.35;;
20725;SDS011;10524;48.132;8.518;2024-02-21T06:38:29;13.00;;;5.50;;
20725;SDS011;10524;48.132;8.518;2024-02-21T06:40:55;16.40;;;6.45;;
20725;SDS011;10524;48.132;8.518;2024-02-21T06:43:21;17.23;;;6.88;;
20725;SDS011;10524;48.132;8.518;2024-02-21T06:45:47;17.70;;;6.50;;
20725;SDS011;10524;48.132;8.518;2024-02-21T06:48:15;17.27;;;6.07;;
20725;SDS011;10524;48.132;8.518;2024-02-21T06:50:41;20.52;;;6.63;;
20725;SDS011;10524;48.132;8.518;2024-02-21T06:53:07;20.83;;;7.40;;
20725;SDS011;10524;48.132;8.518;2024-02-21T06:55:33;23.13;;;7.30;;
20725;SDS011;10524;48.132;8.518;2024-02-21T06:57:59;21.23;;;7.10;;
20725;SDS011;10524;48.132;8.518;2024-02-21T07:00:25;21.67;;;8.10;;
20725;SDS011;10524;48.132;8.518;2024-02-21T07:02:51;15.63;;;6.97;;
20725;SDS011;10524;48.132;8.518;2024-02-21T07:05:17;15.57;;;7.43;;
20725;SDS011;10524;48.132;8.518;2024-02-21T07:07:43;19.48;;;7.57;;
20725;SDS011;10524;48.132;8.518;2024-02-21T07:10:08;19.40;;;9.15;;
20725;SDS011;10524;48.132;8.518;2024-02-21T07:12:35;18.83;;;9.35;;
20725;SDS011;10524;48.132;8.518;2024-02-21T07:15:04;20.13;;;8.90;;
20725;SDS011;10524;48.132;8.518;2024-02-21T07:17:30;25.10;;;9.80;;
20725;SDS011;10524;48.132;8.518;2024-02-21T07:19:56;20.83;;;8.15;;
20725;SDS011;10524;48.132;8.518;2024-02-21T07:22:23;15.57;;;7.65;;
20725;SDS011;10524;48.132;8.518;2024-02-21T07:24:50;17.98;;;8.43;;
20725;SDS011;10524;48.132;8.518;2024-02-21T07:27:15;14.27;;;8.45;;
20725;SDS011;10524;48.132;8.518;2024-02-21T07:29:41;17.77;;;9.25;;
20725;SDS011;10524;48.132;8.518;2024-02-21T07:32:07;17.10;;;9.10;;
20725;SDS011;10524;48.132;8.518;2024-02-21T07:34:34;16.25;;;7.65;;
20725;SDS011;10524;48.132;8.518;2024-02-21T07:37:00;14.20;;;6.00;;
20725;SDS011;10524;48.132;8.518;2024-02-21T07:39:26;12.90;;;5.03;;
20725;SDS011;10524;48.132;8.518;2024-02-21T07:41:51;11.80;;;4.05;;
20725;SDS011;10524;48.132;8.518;2024-02-21T07:44:18;10.75;;;4.40;;
20725;SDS011;10524;48.132;8.518;2024-02-21T07:46:43;7.28;;;3.55;;
20725;SDS011;10524;48.132;8.518;2024-02-21T07:49:09;8.30;;;3.60;;
20725;SDS011;10524;48.132;8.518;2024-02-21T07:51:35;12.27;;;3.53;;
20725;SDS011;10524;48.132;8.518;2024-02-21T07:54:01;7.10;;;3.38;;
20725;SDS011;10524;48.132;8.518;2024-02-21T07:56:29;7.00;;;3.33;;
20725;SDS011;10524;48.132;8.518;2024-02-21T07:58:55;7.13;;;3.72;;
20725;SDS011;10524;48.132;8.518;2024-02-21T08:01:21;7.82;;;3.20;;
20725;SDS011;10524;48.132;8.518;2024-02-21T08:03:46;11.57;;;3.90;;
20725;SDS011;10524;48.132;8.518;2024-02-21T08:06:12;8.05;;;3.40;;
20725;SDS011;10524;48.132;8.518;2024-02-21T08:08:39;6.18;;;3.30;;
20725;SDS011;10524;48.132;8.518;2024-02-21T08:11:05;10.43;;;4.13;;
20725;SDS011;10524;48.132;8.518;2024-02-21T08:13:30;9.52;;;3.70;;
20725;SDS011;10524;48.132;8.518;2024-02-21T08:15:56;6.90;;;3.40;;
20725;SDS011;10524;48.132;8.518;2024-02-21T08:18:22;9.48;;;3.50;;
20725;SDS011;10524;48.132;8.518;2024-02-21T08:20:48;7.72;;;3.50;;
20725;SDS011;10524;48.132;8.518;2024-02-21T08:23:18;10.95;;;3.65;;
20725;SDS011;10524;48.132;8.518;2024-02-21T08:25:44;10.85;;;4.90;;
20725;SDS011;10524;48.132;8.518;2024-02-21T08:28:10;7.32;;;3.60;;
20725;SDS011;10524;48.132;8.518;2024-02-21T08:30:36;6.80;;;3.20;;
20725;SDS011;10524;48.132;8.518;2024-02-21T08:33:01;8.77;;;3.10;;
20725;SDS011;10524;48.132;8.518;2024-02-21T08:35:28;6.22;;;3.00;;
20725;SDS011;10524;48.132;8.518;2024-02-21T08:37:54;8.30;;;2.95;;
20725;SDS011;10524;48.132;8.518;2024-02-21T08:40:20;8.00;;;3.10;;
20725;SDS011;10524;48.132;8.518;2024-02-21T08:42:48;7.68;;;3.28;;
20725;SDS011;10524;48.132;8.518;2024-02-21T08:45:15;6.85;;;2.95;;
20725;SDS011;10524;48.132;8.518;2024-02-21T08:47:40;7.20;;;3.05;;
20725;SDS011;10524;48.132;8.518;2024-02-21T08:50:07;5.72;;;3.05;;
20725;SDS011;10524;48.132;8.518;2024-02-21T08:52:34;6.60;;;3.05;;
20725;SDS011;10524;48.132;8.518;2024-02-21T08:55:00;5.43;;;3.30;;
20725;SDS011;10524;48.132;8.518;2024-02-21T08:57:26;8.63;;;3.75;;
20725;SDS011;10524;48.132;8.518;2024-02-21T08:59:52;6.88;;;3.30;;
20725;SDS011;10524;48.132;8.518;2024-02-21T09:02:18;6.53;;;3.35;;
20725;SDS011;10524;48.132;8.518;2024-02-21T09:04:44;8.40;;;3.70;;
20725;SDS011;10524;48.132;8.518;2024-02-21T09:07:10;10.48;;;3.85;;
20725;SDS011;10524;48.132;8.518;2024-02-21T09:09:36;7.15;;;3.63;;
20725;SDS011;10524;48.132;8.518;2024-02-21T09:12:04;6.40;;;3.58;;
20725;SDS011;10524;48.132;8.518;2024-02-21T09:14:33;6.72;;;3.42;;
20725;SDS011;10524;48.132;8.518;2024-02-21T09:16:59;9.68;;;3.67;;
20725;SDS011;10524;48.132;8.518;2024-02-21T09:19:25;9.35;;;3.47;;
20725;SDS011;10524;48.132;8.518;2024-02-21T09:21:51;8.55;;;3.70;;
20725;SDS011;10524;48.132;8.518;2024-02-21T09:24:17;8.10;;;3.22;;
20725;SDS011;10524;48.132;8.518;2024-02-21T09:26:42;6.07;;;3.35;;
20725;SDS011;10524;48.132;8.518;2024-02-21T09:29:08;7.43;;;3.20;;
20725;SDS011;10524;48.132;8.518;2024-02-21T09:31:34;8.02;;;3.45;;
20725;SDS011;10524;48.132;8.518;2024-02-21T09:34:00;7.22;;;3.10;;
20725;SDS011;10524;48.132;8.518;2024-02-21T09:36:26;5.78;;;3.08;;
20725;SDS011;10524;48.132;8.518;2024-02-21T09:38:52;6.25;;;3.00;;
20725;SDS011;10524;48.132;8.518;2024-02-21T09:41:25;4.95;;;2.70;;
20725;SDS011;10524;48.132;8.518;2024-02-21T09:43:52;7.05;;;3.10;;
20725;SDS011;10524;48.132;8.518;2024-02-21T09:46:19;5.13;;;2.60;;
20725;SDS011;10524;48.132;8.518;2024-02-21T09:51:47;5.25;;;3.53;;
20725;SDS011;10524;48.132;8.518;2024-02-21T09:54:14;6.22;;;3.33;;
20725;SDS011;10524;48.132;8.518;2024-02-21T09:56:40;4.00;;;3.22;;
20725;SDS011;10524;48.132;8.518;2024-02-21T09:59:06;6.72;;;4.22;;
20725;SDS011;10524;48.132;8.518;2024-02-21T10:01:33;7.53;;;3.67;;
20725;SDS011;10524;48.132;8.518;2024-02-21T10:03:59;7.80;;;3.90;;
20725;SDS011;10524;48.132;8.518;2024-02-21T10:06:25;5.75;;;3.60;;
20725;SDS011;10524;48.132;8.518;2024-02-21T10:08:53;5.70;;;3.25;;
20725;SDS011;10524;48.132;8.518;2024-02-21T10:11:23;6.38;;;3.40;;
20725;SDS011;10524;48.132;8.518;2024-02-21T10:13:49;4.50;;;3.13;;
20725;SDS011;10524;48.132;8.518;2024-02-21T10:16:15;4.72;;;2.97;;
20725;SDS011;10524;48.132;8.518;2024-02-21T10:18:41;6.50;;;3.38;;
20725;SDS011;10524;48.132;8.518;2024-02-21T10:21:07;5.93;;;3.22;;
20725;SDS011;10524;48.132;8.518;2024-02-21T10:23:43;4.38;;;2.97;;
20725;SDS011;10524;48.132;8.518;2024-02-21T10:26:08;4.85;;;2.70;;
20725;SDS011;10524;48.132;8.518;2024-02-21T10:28:34;5.15;;;3.03;;
20725;SDS011;10524;48.132;8.518;2024-02-21T10:31:00;4.90;;;2.75;;
20725;SDS011;10524;48.132;8.518;2024-02-21T10:33:26;4.30;;;2.53;;
20725;SDS011;10524;48.132;8.518;2024-02-21T10:35:53;3.45;;;2.60;;
20725;SDS011;10524;48.132;8.518;2024-02-21T10:38:19;4.78;;;2.70;;
20725;SDS011;10524;48.132;8.518;2024-02-21T10:40:44;4.10;;;3.13;;
20725;SDS011;10524;48.132;8.518;2024-02-21T10:43:12;5.88;;;3.17;;
20725;SDS011;10524;48.132;8.518;2024-02-21T10:45:41;5.18;;;3.45;;
20725;SDS011;10524;48.132;8.518;2024-02-21T10:48:14;9.73;;;2.97;;
20725;SDS011;10524;48.132;8.518;2024-02-21T10:50:45;5.35;;;3.00;;
20725;SDS011;10524;48.132;8.518;2024-02-21T10:56:39;5.43;;;2.88;;
20725;SDS011;10524;48.132;8.518;2024-02-21T10:58:46;5.22;;;2.80;;
20725;SDS011;10524;48.132;8.518;2024-02-21T11:01:13;4.95;;;3.13;;
20725;SDS011;10524;48.132;8.518;2024-02-21T11:03:41;4.68;;;2.92;;
20725;SDS011;10524;48.132;8.518;2024-02-21T11:06:09;9.02;;;3.53;;
20725;SDS011;10524;48.132;8.518;2024-02-21T11:08:37;5.75;;;2.70;;
20725;SDS011;10524;48.132;8.518;2024-02-21T11:11:04;6.18;;;3.15;;
20725;SDS011;10524;48.132;8.518;2024-02-21T11:13:40;3.80;;;2.70;;
20725;SDS011;10524;48.132;8.518;2024-02-21T11:16:09;5.43;;;2.83;;
20725;SDS011;10524;48.132;8.518;2024-02-21T11:18:38;7.90;;;3.80;;
20725;SDS011;10524;48.132;8.518;2024-02-21T11:21:04;6.22;;;3.38;;
20725;SDS011;10524;48.132;8.518;2024-02-21T11:23:30;6.03;;;2.80;;
20725;SDS011;10524;48.132;8.518;2024-02-21T11:26:09;6.68;;;2.92;;
20725;SDS011;10524;48.132;8.518;2024-02-21T11:28:44;5.78;;;2.97;;
20725;SDS011;10524;48.132;8.518;2024-02-21T11:31:13;4.97;;;2.85;;
20725;SDS011;10524;48.132;8.518;2024-02-21T11:33:39;6.75;;;2.90;;
20725;SDS011;10524;48.132;8.518;2024-02-21T11:36:07;4.85;;;2.80;;
20725;SDS011;10524;48.132;8.518;2024-02-21T11:38:34;4.32;;;2.80;;
20725;SDS011;10524;48.132;8.518;2024-02-21T11:40:59;5.18;;;3.00;;
20725;SDS011;10524;48.132;8.518;2024-02-21T11:43:25;5.20;;;2.70;;
20725;SDS011;10524;48.132;8.518;2024-02-21T11:45:58;6.72;;;2.85;;
20725;SDS011;10524;48.132;8.518;2024-02-21T11:48:29;5.97;;;3.05;;
20725;SDS011;10524;48.132;8.518;2024-02-21T11:50:56;4.10;;;2.90;;
20725;SDS011;10524;48.132;8.518;2024-02-21T11:53:22;4.22;;;2.70;;
20725;SDS011;10524;48.132;8.518;2024-02-21T11:55:48;5.50;;;3.53;;
20725;SDS011;10524;48.132;8.518;2024-02-21T11:58:15;4.03;;;2.47;;
20725;SDS011;10524;48.132;8.518;2024-02-21T12:00:41;5.63;;;2.88;;
20725;SDS011;10524;48.132;8.518;2024-02-21T12:03:07;4.20;;;2.50;;
20725;SDS011;10524;48.132;8.518;2024-02-21T12:05:34;7.43;;;2.92;;
20725;SDS011;10524;48.132;8.518;2024-02-21T12:08:00;4.28;;;2.60;;
20725;SDS011;10524;48.132;8.518;2024-02-21T12:10:26;3.75;;;2.40;;
20725;SDS011;10524;48.132;8.518;2024-02-21T12:12:52;4.53;;;2.88;;
20725;SDS011;10524;48.132;8.518;2024-02-21T12:15:23;3.90;;;2.67;;
20725;SDS011;10524;48.132;8.518;2024-02-21T12:17:49;7.15;;;2.75;;
20725;SDS011;10524;48.132;8.518;2024-02-21T12:20:17;4.70;;;3.00;;
20725;SDS011;10524;48.132;8.518;2024-02-21T12:22:45;6.25;;;3.15;;
20725;SDS011;10524;48.132;8.518;2024-02-21T12:25:17;5.75;;;2.80;;
20725;SDS011;10524;48.132;8.518;2024-02-21T12:27:44;4.78;;;2.75;;
20725;SDS011;10524;48.132;8.518;2024-02-21T12:30:11;3.85;;;2.90;;
20725;SDS011;10524;48.132;8.518;2024-02-21T12:32:37;5.40;;;2.90;;
20725;SDS011;10524;48.132;8.518;2024-02-21T12:35:03;5.88;;;2.78;;
20725;SDS011;10524;48.132;8.518;2024-02-21T12:37:29;4.35;;;3.08;;
20725;SDS011;10524;48.132;8.518;2024-02-21T12:39:54;4.35;;;3.00;;
20725;SDS011;10524;48.132;8.518;2024-02-21T12:42:20;6.10;;;4.30;;
20725;SDS011;10524;48.132;8.518;2024-02-21T12:44:46;5.50;;;3.47;;
20725;SDS011;10524;48.132;8.518;2024-02-21T12:47:12;4.85;;;3.22;;
20725;SDS011;10524;48.132;8.518;2024-02-21T12:49:38;5.75;;;3.40;;
20725;SDS011;10524;48.132;8.518;2024-02-21T12:52:03;4.93;;;3.35;;
20725;SDS011;10524;48.132;8.518;2024-02-21T12:54:29;4.80;;;3.30;;
20725;SDS011;10524;48.132;8.518;2024-02-21T12:56:56;4.88;;;3.00;;
20725;SDS011;10524;48.132;8.518;2024-02-21T12:59:22;6.38;;;3.33;;
20725;SDS011;10524;48.132;8.518;2024-02-21T13:01:48;7.15;;;4.00;;
20725;SDS011;10524;48.132;8.518;2024-02-21T13:04:14;6.78;;;3.67;;
20725;SDS011;10524;48.132;8.518;2024-02-21T13:06:39;9.20;;;4.53;;
20725;SDS011;10524;48.132;8.518;2024-02-21T13:09:05;7.80;;;4.25;;
20725;SDS011;10524;48.132;8.518;2024-02-21T13:11:34;7.75;;;3.60;;
20725;SDS011;10524;48.132;8.518;2024-02-21T13:14:00;5.70;;;3.58;;
20725;SDS011;10524;48.132;8.518;2024-02-21T13:16:25;4.90;;;3.42;;
20725;SDS011;10524;48.132;8.518;2024-02-21T13:18:52;6.80;;;3.70;;
20725;SDS011;10524;48.132;8.518;2024-02-21T13:21:17;6.82;;;3.90;;
20725;SDS011;10524;48.132;8.518;2024-02-21T13:23:43;5.97;;;3.78;;
20725;SDS011;10524;48.132;8.518;2024-02-21T13:26:10;6.13;;;3.80;;
20725;SDS011;10524;48.132;8.518;2024-02-21T13:28:36;7.90;;;4.18;;
20725;SDS011;10524;48.132;8.518;2024-02-21T13:31:02;4.95;;;3.60;;
20725;SDS011;10524;48.132;8.518;2024-02-21T13:33:28;6.00;;;3.40;;
20725;SDS011;10524;48.132;8.518;2024-02-21T13:35:54;4.97;;;3.47;;
20725;SDS011;10524;48.132;8.518;2024-02-21T13:38:19;5.72;;;3.80;;
20725;SDS011;10524;48.132;8.518;2024-02-21T13:40:45;4.72;;;3.47;;
20725;SDS011;10524;48.132;8.518;2024-02-21T13:43:11;6.20;;;3.47;;
20725;SDS011;10524;48.132;8.518;2024-02-21T13:45:37;4.90;;;3.65;;
20725;SDS011;10524;48.132;8.518;2024-02-21T13:48:03;7.18;;;3.60;;
20725;SDS011;10524;48.132;8.518;2024-02-21T13:50:31;5.43;;;3.50;;
20725;SDS011;10524;48.132;8.518;2024-02-21T13:52:59;6.28;;;3.80;;
20725;SDS011;10524;48.132;8.518;2024-02-21T13:55:26;6.32;;;3.70;;
20725;SDS011;10524;48.132;8.518;2024-02-21T13:57:52;7.22;;;4.22;;
20725;SDS011;10524;48.132;8.518;2024-02-21T14:00:18;3.90;;;3.30;;
20725;SDS011;10524;48.132;8.518;2024-02-21T14:02:45;7.25;;;3.83;;
20725;SDS011;10524;48.132;8.518;2024-02-21T14:05:11;4.22;;;3.15;;
20725;SDS011;10524;48.132;8.518;2024-02-21T14:07:38;4.65;;;3.38;;
20725;SDS011;10524;48.132;8.518;2024-02-21T14:10:04;5.72;;;3.50;;
20725;SDS011;10524;48.132;8.518;2024-02-21T14:12:30;5.63;;;3.50;;
20725;SDS011;10524;48.132;8.518;2024-02-21T14:14:57;6.78;;;3.35;;
20725;SDS011;10524;48.132;8.518;2024-02-21T14:17:23;5.95;;;3.67;;
20725;SDS011;10524;48.132;8.518;2024-02-21T14:19:49;4.15;;;3.40;;
20725;SDS011;10524;48.132;8.518;2024-02-21T14:22:16;5.35;;;3.67;;
20725;SDS011;10524;48.132;8.518;2024-02-21T14:24:42;6.20;;;4.05;;
20725;SDS011;10524;48.132;8.518;2024-02-21T14:27:08;6.80;;;3.42;;
20725;SDS011;10524;48.132;8.518;2024-02-21T14:29:34;6.57;;;3.45;;
20725;SDS011;10524;48.132;8.518;2024-02-21T14:32:00;5.57;;;3.60;;
20725;SDS011;10524;48.132;8.518;2024-02-21T14:34:25;5.97;;;3.65;;
20725;SDS011;10524;48.132;8.518;2024-02-21T14:36:51;4.90;;;3.70;;
20725;SDS011;10524;48.132;8.518;2024-02-21T14:39:17;4.45;;;3.42;;
20725;SDS011;10524;48.132;8.518;2024-02-21T14:41:43;6.93;;;3.70;;